Time;durP1;ratioP1;P1;durP2;ratioP2;P2;SDS_P1;SDS_P2;PMS_P1;PMS_P2;Temp;Humidity;BMP_temperature;BMP_pressure;BME280_temperature;BME280_humidity;BME280_pressure;Samples;Min_cycle;Max_cycle;Signal;HPM_P1;HPM_P2
2020/12/22 00:01:45;;;;;;;39.92;13.82;;;3.00;99.90;;;;;;20833276;28;20387;-60
2020/12/22 00:11:47;;;;;;;353.90;20.05;;;3.00;99.90;;;;;;20832683;28;20091;-61
2020/12/22 00:21:49;;;;;;;364.33;20.48;;;2.80;99.90;;;;;;20830615;28;20079;-60
2020/12/22 00:31:52;;;;;;;458.23;21.77;;;2.70;99.90;;;;;;20829102;28;20045;-60
2020/12/22 00:41:55;;;;;;;567.40;22.33;;;2.50;99.90;;;;;;20829353;28;20088;-61
2020/12/22 00:51:58;;;;;;;161.85;13.55;;;2.30;99.90;;;;;;20829285;28;20041;-60
2020/12/22 01:02:07;;;;;;;32.65;12.13;;;2.30;99.90;;;;;;20828804;28;20095;-60
2020/12/22 01:12:09;;;;;;;34.42;11.55;;;2.20;99.90;;;;;;20877597;28;20060;-60
2020/12/22 01:22:11;;;;;;;39.00;14.30;;;2.10;99.90;;;;;;20910410;28;20102;-60
2020/12/22 01:32:13;;;;;;;38.08;13.70;;;2.10;99.90;;;;;;20863066;28;20046;-60
2020/12/22 01:42:15;;;;;;;43.53;14.38;;;2.10;99.90;;;;;;20825002;28;20123;-61
2020/12/22 01:52:17;;;;;;;49.88;15.45;;;2.10;99.90;;;;;;20825578;28;20045;-60
2020/12/22 02:02:19;;;;;;;301.45;30.02;;;2.20;99.90;;;;;;20826039;28;20374;-60
2020/12/22 02:12:21;;;;;;;43.55;14.07;;;2.10;99.90;;;;;;20824663;28;20053;-63
2020/12/22 02:22:23;;;;;;;34.22;13.13;;;2.00;99.90;;;;;;20824214;28;20037;-60
2020/12/22 02:32:24;;;;;;;40.60;14.02;;;2.00;99.90;;;;;;20823706;28;20049;-60
2020/12/22 02:42:26;;;;;;;29.67;10.95;;;1.90;99.90;;;;;;20830745;28;20480;-59
2020/12/22 02:52:28;;;;;;;27.75;9.90;;;1.90;99.90;;;;;;20838651;28;20038;-60
2020/12/22 03:02:30;;;;;;;22.42;8.32;;;1.90;99.90;;;;;;20838133;28;20041;-61
2020/12/22 03:12:31;;;;;;;20.08;8.65;;;2.00;99.90;;;;;;20892175;28;20040;-60
2020/12/22 03:22:34;;;;;;;26.80;11.43;;;2.10;99.90;;;;;;20920166;28;20029;-61
2020/12/22 03:32:37;;;;;;;14.88;6.65;;;2.00;99.90;;;;;;20918781;28;20106;-60
2020/12/22 03:42:40;;;;;;;18.00;8.45;;;2.00;99.90;;;;;;20900768;28;20046;-61
2020/12/22 03:52:42;;;;;;;12.98;7.30;;;2.20;99.90;;;;;;20832989;28;20095;-60
2020/12/22 04:02:44;;;;;;;11.20;5.28;;;2.40;99.90;;;;;;20832433;28;20064;-60
2020/12/22 04:12:46;;;;;;;9.35;4.80;;;2.30;99.90;;;;;;20833202;28;20448;-60
2020/12/22 04:22:47;;;;;;;9.15;4.88;;;2.20;99.90;;;;;;20831742;28;20068;-60
2020/12/22 04:32:49;;;;;;;9.85;3.97;;;2.20;99.90;;;;;;20831707;28;20037;-61
2020/12/22 04:42:53;;;;;;;6.43;3.78;;;2.00;99.90;;;;;;20828325;28;20107;-60
2020/12/22 04:52:55;;;;;;;6.85;3.17;;;2.10;99.90;;;;;;20827154;28;20053;-61
2020/12/22 05:03:00;;;;;;;7.50;3.83;;;2.00;99.90;;;;;;20827909;28;20391;-60
2020/12/22 05:13:03;;;;;;;8.98;4.05;;;2.00;99.90;;;;;;20827160;28;20461;-61
2020/12/22 05:23:14;;;;;;;6.80;3.33;;;1.90;99.90;;;;;;20826520;28;20033;-60
2020/12/22 05:33:17;;;;;;;4.95;2.45;;;2.00;99.90;;;;;;20826939;28;20049;-61
2020/12/22 05:43:19;;;;;;;4.30;2.33;;;2.10;99.90;;;;;;20828450;28;20103;-61
2020/12/22 05:53:25;;;;;;;5.35;2.40;;;2.10;99.90;;;;;;20824662;28;20487;-61
2020/12/22 06:03:27;;;;;;;4.40;1.70;;;2.20;99.90;;;;;;20824272;28;20052;-60
2020/12/22 06:13:30;;;;;;;2.25;1.33;;;2.10;99.90;;;;;;20888259;28;20041;-61
2020/12/22 06:23:34;;;;;;;2.70;1.40;;;2.00;99.90;;;;;;20923077;28;20067;-60
2020/12/22 06:33:36;;;;;;;2.80;1.30;;;2.00;99.90;;;;;;20923433;28;20363;-61
2020/12/22 06:43:39;;;;;;;2.05;1.00;;;1.90;99.90;;;;;;20922310;28;20063;-60
2020/12/22 06:53:43;;;;;;;2.63;0.93;;;1.90;99.90;;;;;;20921582;28;20103;-61
2020/12/22 07:03:45;;;;;;;2.42;0.98;;;1.90;99.90;;;;;;20919918;28;20433;-61
2020/12/22 07:13:47;;;;;;;1.52;0.98;;;1.80;99.90;;;;;;20855088;28;20041;-61
2020/12/22 07:23:51;;;;;;;1.33;0.80;;;1.90;99.90;;;;;;20835487;28;20068;-60
2020/12/22 07:33:53;;;;;;;1.25;0.80;;;2.00;99.90;;;;;;20835521;28;20053;-60
2020/12/22 07:44:09;;;;;;;1.15;0.77;;;2.10;99.90;;;;;;20834491;28;20076;-62
2020/12/22 07:54:11;;;;;;;1.15;0.70;;;2.40;99.90;;;;;;20833502;28;20484;-61
2020/12/22 08:04:22;;;;;;;1.05;0.52;;;2.70;99.90;;;;;;20833068;28;20369;-61
2020/12/22 08:14:24;;;;;;;1.05;0.50;;;3.20;99.90;;;;;;20901618;28;20094;-62
2020/12/22 08:24:29;;;;;;;1.33;0.50;;;3.90;99.90;;;;;;20914892;28;20029;-61
2020/12/22 08:34:31;;;;;;;1.27;0.60;;;4.50;99.90;;;;;;20852412;28;20042;-61
2020/12/22 08:44:33;;;;;;;2.38;1.10;;;4.80;99.90;;;;;;20830497;28;20380;-61
2020/12/22 08:54:35;;;;;;;1.70;0.88;;;4.90;99.90;;;;;;20811708;28;20053;-62
2020/12/22 09:04:37;;;;;;;0.82;0.50;;;5.30;99.90;;;;;;20828133;28;20067;-62
2020/12/22 09:14:46;;;;;;;1.42;0.80;;;6.10;99.90;;;;;;20828685;28;20099;-62
2020/12/22 09:24:56;;;;;;;1.40;0.98;;;7.00;99.90;;;;;;20847816;28;20029;-62
2020/12/22 09:34:58;;;;;;;1.92;1.27;;;7.10;99.90;;;;;;20829894;28;20091;-62
2020/12/22 09:45:00;;;;;;;8.55;1.90;;;6.70;99.90;;;;;;20908672;28;20029;-62
2020/12/22 09:55:02;;;;;;;2.83;1.80;;;6.50;99.90;;;;;;20905504;28;20057;-62
2020/12/22 10:05:05;;;;;;;3.25;2.17;;;6.50;99.90;;;;;;20908210;28;20048;-64
2020/12/22 10:15:07;;;;;;;3.67;2.67;;;7.70;99.90;;;;;;20831796;28;20053;-63
2020/12/22 10:25:09;;;;;;;5.75;4.13;;;8.60;99.90;;;;;;20824193;28;20029;-63
2020/12/22 10:35:11;;;;;;;5.80;4.30;;;8.90;99.90;;;;;;20824947;28;20071;-63
2020/12/22 10:45:13;;;;;;;6.60;4.68;;;9.10;99.90;;;;;;20823562;28;20033;-62
2020/12/22 10:55:14;;;;;;;7.45;5.10;;;8.40;99.90;;;;;;20823472;28;20045;-63
2020/12/22 11:05:17;;;;;;;9.52;6.43;;;8.10;99.90;;;;;;20832041;28;20484;-63
2020/12/22 11:15:19;;;;;;;6.20;4.30;;;8.30;99.90;;;;;;20914498;28;20406;-63
2020/12/22 11:25:21;;;;;;;7.30;5.53;;;8.00;99.90;;;;;;20868168;28;20044;-63
2020/12/22 11:35:25;;;;;;;8.65;6.50;;;8.30;99.90;;;;;;20836661;28;20495;-63
2020/12/22 11:45:27;;;;;;;10.35;7.43;;;9.30;99.90;;;;;;20834532;28;20075;-63
2020/12/22 11:55:29;;;;;;;10.43;7.20;;;9.10;99.90;;;;;;20835369;28;20041;-62
2020/12/22 12:05:31;;;;;;;11.05;6.90;;;8.90;99.90;;;;;;21021015;23;20045;-62
2020/12/22 12:15:33;;;;;;;7.50;5.78;;;8.40;99.90;;;;;;20893610;28;20049;-62
2020/12/22 12:25:35;;;;;;;9.95;6.45;;;8.80;99.90;;;;;;20913801;28;20091;-63
2020/12/22 12:35:37;;;;;;;8.38;6.15;;;9.00;99.90;;;;;;20895864;28;20045;-64
2020/12/22 12:45:39;;;;;;;8.55;6.05;;;9.30;99.90;;;;;;20914538;28;20079;-63
2020/12/22 12:55:41;;;;;;;8.20;5.85;;;9.00;99.90;;;;;;20911419;28;20060;-62
2020/12/22 13:05:44;;;;;;;8.15;5.47;;;8.50;99.90;;;;;;20911020;28;20383;-62
2020/12/22 13:15:46;;;;;;;8.20;5.03;;;7.90;99.90;;;;;;20829356;28;20049;-62
2020/12/22 13:25:48;;;;;;;6.82;5.22;;;7.80;99.90;;;;;;20826484;28;20511;-62
2020/12/22 13:35:49;;;;;;;6.03;4.93;;;7.50;99.90;;;;;;20809322;28;20403;-63
2020/12/22 13:45:51;;;;;;;6.30;4.70;;;7.00;99.90;;;;;;20825512;28;20049;-63
2020/12/22 13:55:53;;;;;;;11.82;6.45;;;6.50;99.90;;;;;;20825684;28;20102;-63
2020/12/22 14:05:55;;;;;;;8.98;6.38;;;6.20;99.90;;;;;;20821642;28;20475;-62
2020/12/22 14:15:57;;;;;;;11.20;6.28;;;5.80;99.90;;;;;;20823585;28;20057;-62
2020/12/22 14:26:00;;;;;;;12.90;7.70;;;5.30;99.90;;;;;;20806262;28;20107;-64
2020/12/22 14:36:16;;;;;;;8.32;5.65;;;5.00;99.90;;;;;;20827142;28;20399;-62
2020/12/22 14:46:19;;;;;;;10.77;7.05;;;4.60;99.90;;;;;;20839787;28;20091;-62
2020/12/22 14:56:20;;;;;;;11.38;6.50;;;4.20;99.90;;;;;;20837952;28;20041;-62
2020/12/22 15:06:23;;;;;;;8.98;5.70;;;4.00;99.90;;;;;;20837922;28;20041;-62
2020/12/22 15:16:32;;;;;;;8.43;5.90;;;3.60;99.90;;;;;;20818705;28;20099;-62
2020/12/22 15:26:35;;;;;;;9.02;5.80;;;3.20;99.90;;;;;;20818801;28;20416;-61
2020/12/22 15:36:37;;;;;;;9.05;4.88;;;3.00;99.90;;;;;;20835591;28;20507;-64
2020/12/22 15:46:39;;;;;;;10.35;6.20;;;2.80;99.90;;;;;;20834436;28;20096;-62
2020/12/22 15:56:42;;;;;;;7.25;4.25;;;2.60;99.90;;;;;;20832654;28;20410;-61
2020/12/22 16:06:44;;;;;;;8.90;5.40;;;2.60;99.90;;;;;;20832115;28;20034;-62
2020/12/22 16:16:46;;;;;;;7.10;4.78;;;2.50;99.90;;;;;;20832552;28;20046;-62
2020/12/22 16:26:48;;;;;;;12.50;8.05;;;2.40;99.90;;;;;;20813216;28;20344;-62
2020/12/22 16:36:53;;;;;;;10.20;6.45;;;2.40;99.90;;;;;;20830897;28;20049;-62
2020/12/22 16:46:58;;;;;;;4.50;3.30;;;2.40;99.90;;;;;;20830038;28;20034;-61
2020/12/22 16:57:01;;;;;;;4.63;2.70;;;2.30;99.90;;;;;;20827735;28;20037;-63
2020/12/22 17:07:04;;;;;;;5.53;3.13;;;2.20;99.90;;;;;;20827869;28;20037;-62
2020/12/22 17:17:06;;;;;;;4.05;2.55;;;2.00;99.90;;;;;;20826352;28;20057;-62
2020/12/22 17:27:09;;;;;;;4.78;2.58;;;1.90;99.90;;;;;;20827393;28;20522;-62
2020/12/22 17:37:11;;;;;;;3.42;1.98;;;1.80;99.90;;;;;;20908791;28;20094;-62
2020/12/22 17:47:13;;;;;;;3.33;1.73;;;1.90;99.90;;;;;;20907759;28;20083;-61
2020/12/22 17:57:15;;;;;;;3.58;1.70;;;1.70;99.90;;;;;;20870391;28;20487;-62
2020/12/22 18:07:17;;;;;;;3.95;1.83;;;1.60;99.90;;;;;;20825066;28;20033;-62
2020/12/22 18:17:19;;;;;;;2.20;1.25;;;1.60;99.90;;;;;;20838362;28;20392;-61
2020/12/22 18:27:24;;;;;;;2.42;1.20;;;1.40;99.90;;;;;;20823776;28;20041;-62
2020/12/22 18:37:26;;;;;;;3.33;1.40;;;1.50;99.90;;;;;;20822251;28;20049;-62
2020/12/22 18:47:30;;;;;;;3.55;2.20;;;1.50;99.90;;;;;;20838354;28;20099;-63
2020/12/22 18:57:31;;;;;;;3.05;1.52;;;1.50;99.90;;;;;;20820832;28;20041;-62
2020/12/22 19:07:33;;;;;;;1.85;1.08;;;1.50;99.90;;;;;;20837823;28;20549;-62
2020/12/22 19:17:41;;;;;;;2.25;1.40;;;1.40;99.90;;;;;;20836315;28;20049;-62
2020/12/22 19:27:43;;;;;;;1.90;0.90;;;1.40;99.90;;;;;;20833075;28;20567;-62
2020/12/22 19:37:45;;;;;;;2.40;1.17;;;1.50;99.90;;;;;;20835856;28;20053;-62
2020/12/22 19:47:55;;;;;;;2.10;1.08;;;1.40;99.90;;;;;;20816823;28;20042;-62
2020/12/22 19:57:58;;;;;;;4.67;1.57;;;1.40;99.90;;;;;;20833298;28;20461;-62
2020/12/22 20:08:04;;;;;;;1.83;1.17;;;1.40;99.90;;;;;;20833020;28;20042;-62
2020/12/22 20:18:07;;;;;;;1.73;0.80;;;1.50;99.90;;;;;;20832827;28;20493;-62
2020/12/22 20:28:09;;;;;;;1.73;1.00;;;1.50;99.90;;;;;;20830017;28;20054;-62
2020/12/22 20:38:12;;;;;;;2.47;1.20;;;1.50;99.90;;;;;;20813190;28;20045;-62
2020/12/22 20:48:17;;;;;;;4.03;1.67;;;1.40;99.90;;;;;;20829989;28;20383;-62
2020/12/22 20:58:23;;;;;;;2.38;1.35;;;1.30;99.90;;;;;;20779568;28;20076;-61
2020/12/22 21:08:27;;;;;;;3.05;1.70;;;1.30;99.90;;;;;;20828536;28;20083;-62
2020/12/22 21:18:31;;;;;;;3.33;1.50;;;1.20;99.90;;;;;;20827070;28;20042;-62
2020/12/22 21:28:33;;;;;;;2.35;1.20;;;1.20;99.90;;;;;;20808960;28;20099;-62
2020/12/22 21:38:36;;;;;;;1.88;1.02;;;1.20;99.90;;;;;;20826773;28;20091;-62
2020/12/22 21:48:41;;;;;;;1.75;1.10;;;1.40;99.90;;;;;;20824657;28;20045;-62
2020/12/22 21:58:43;;;;;;;2.53;1.10;;;1.20;99.90;;;;;;20807600;28;20034;-62
2020/12/22 22:08:45;;;;;;;2.20;1.10;;;1.20;99.90;;;;;;20825903;28;20483;-62
2020/12/22 22:18:48;;;;;;;1.50;0.98;;;0.90;99.90;;;;;;20806844;28;20050;-62
2020/12/22 22:28:50;;;;;;;2.20;1.20;;;0.90;99.90;;;;;;20823932;28;20053;-62
2020/12/22 22:38:52;;;;;;;1.83;1.05;;;0.90;99.90;;;;;;20806023;28;20091;-62
2020/12/22 22:48:54;;;;;;;3.25;1.77;;;0.90;99.90;;;;;;20823920;28;20089;-62
2020/12/22 22:58:57;;;;;;;1.30;0.80;;;1.00;99.90;;;;;;20828537;28;20395;-64
2020/12/22 23:08:59;;;;;;;2.47;1.50;;;0.90;99.90;;;;;;20837263;28;20029;-63
2020/12/22 23:19:01;;;;;;;2.33;1.20;;;0.70;99.90;;;;;;20837590;28;20045;-64
2020/12/22 23:29:04;;;;;;;2.20;1.15;;;0.70;99.90;;;;;;20818923;28;20610;-62
2020/12/22 23:39:06;;;;;;;1.65;1.05;;;0.60;99.90;;;;;;20817454;28;20045;-62
2020/12/22 23:49:08;;;;;;;2.00;1.08;;;0.50;99.90;;;;;;20834410;28;20400;-62
2020/12/22 23:59:10;;;;;;;2.28;1.30;;;0.50;99.90;;;;;;20818672;28;20049;-62
